sensor_id;sensor_type;location;lat;lon;timestamp;temperature;humidity
14723;DHT22;7452;55.594;12.986;2023-04-03T00:01:42;3.10;99.90
14723;DHT22;7452;55.594;12.986;2023-04-03T00:04:10;3.10;99.90
14723;DHT22;7452;55.594;12.986;2023-04-03T00:06:37;3.10;99.90
14723;DHT22;7452;55.594;12.986;2023-04-03T00:09:04;3.10;99.90
14723;DHT22;7452;55.594;12.986;2023-04-03T00:11:31;3.10;99.90
14723;DHT22;7452;55.594;12.986;2023-04-03T00:13:58;3.10;99.90
14723;DHT22;7452;55.594;12.986;2023-04-03T00:16:25;3.20;99.90
14723;DHT22;7452;55.594;12.986;2023-04-03T00:18:51;3.20;99.90
14723;DHT22;7452;55.594;12.986;2023-04-03T00:21:20;3.20;99.90
14723;DHT22;7452;55.594;12.986;2023-04-03T00:23:47;3.20;99.90
14723;DHT22;7452;55.594;12.986;2023-04-03T00:26:14;3.20;99.90
14723;DHT22;7452;55.594;12.986;2023-04-03T00:28:41;3.20;99.90
14723;DHT22;7452;55.594;12.986;2023-04-03T00:31:09;3.10;99.90
14723;DHT22;7452;55.594;12.986;2023-04-03T00:33:36;3.10;99.90
14723;DHT22;7452;55.594;12.986;2023-04-03T00:36:07;3.10;99.90
14723;DHT22;7452;55.594;12.986;2023-04-03T00:38:36;3.10;99.90
14723;DHT22;7452;55.594;12.986;2023-04-03T00:41:03;3.10;99.90
14723;DHT22;7452;55.594;12.986;2023-04-03T00:43:31;3.00;99.90
14723;DHT22;7452;55.594;12.986;2023-04-03T00:45:59;3.00;99.90
14723;DHT22;7452;55.594;12.986;2023-04-03T00:48:29;3.00;99.90
14723;DHT22;7452;55.594;12.986;2023-04-03T00:50:57;2.90;99.90
14723;DHT22;7452;55.594;12.986;2023-04-03T00:53:27;2.90;99.90
14723;DHT22;7452;55.594;12.986;2023-04-03T00:55:58;2.90;99.90
14723;DHT22;7452;55.594;12.986;2023-04-03T00:58:31;2.80;99.90
14723;DHT22;7452;55.594;12.986;2023-04-03T01:01:03;2.80;99.90
14723;DHT22;7452;55.594;12.986;2023-04-03T01:03:32;2.70;99.90
14723;DHT22;7452;55.594;12.986;2023-04-03T01:05:59;2.70;99.90
14723;DHT22;7452;55.594;12.986;2023-04-03T01:08:26;2.70;99.90
14723;DHT22;7452;55.594;12.986;2023-04-03T01:10:53;2.60;99.90
14723;DHT22;7452;55.594;12.986;2023-04-03T01:13:24;2.60;99.90
14723;DHT22;7452;55.594;12.986;2023-04-03T01:15:51;2.60;99.90
14723;DHT22;7452;55.594;12.986;2023-04-03T01:18:18;2.60;99.90
14723;DHT22;7452;55.594;12.986;2023-04-03T01:21:36;2.60;99.90
14723;DHT22;7452;55.594;12.986;2023-04-03T01:24:22;2.50;99.90
14723;DHT22;7452;55.594;12.986;2023-04-03T01:26:52;2.50;99.90
14723;DHT22;7452;55.594;12.986;2023-04-03T01:29:20;2.40;99.90
14723;DHT22;7452;55.594;12.986;2023-04-03T01:31:51;2.50;99.90
14723;DHT22;7452;55.594;12.986;2023-04-03T01:34:19;2.40;99.90
14723;DHT22;7452;55.594;12.986;2023-04-03T01:36:46;2.40;99.90
14723;DHT22;7452;55.594;12.986;2023-04-03T01:39:13;2.30;99.90
14723;DHT22;7452;55.594;12.986;2023-04-03T01:41:40;2.30;99.90
14723;DHT22;7452;55.594;12.986;2023-04-03T01:44:07;2.30;99.90
14723;DHT22;7452;55.594;12.986;2023-04-03T01:46:34;2.30;99.90
14723;DHT22;7452;55.594;12.986;2023-04-03T01:49:02;2.30;99.90
14723;DHT22;7452;55.594;12.986;2023-04-03T01:51:29;2.20;99.90
14723;DHT22;7452;55.594;12.986;2023-04-03T01:53:56;2.20;99.90
14723;DHT22;7452;55.594;12.986;2023-04-03T01:56:23;2.20;99.90
14723;DHT22;7452;55.594;12.986;2023-04-03T01:58:50;2.10;99.90
14723;DHT22;7452;55.594;12.986;2023-04-03T02:01:17;2.20;99.90
14723;DHT22;7452;55.594;12.986;2023-04-03T02:03:44;2.20;99.90
14723;DHT22;7452;55.594;12.986;2023-04-03T02:06:12;2.10;99.90
14723;DHT22;7452;55.594;12.986;2023-04-03T02:08:39;2.00;99.90
14723;DHT22;7452;55.594;12.986;2023-04-03T02:11:07;2.00;99.90
14723;DHT22;7452;55.594;12.986;2023-04-03T02:13:34;2.00;99.90
14723;DHT22;7452;55.594;12.986;2023-04-03T02:16:06;2.00;99.90
14723;DHT22;7452;55.594;12.986;2023-04-03T02:18:34;1.90;99.90
14723;DHT22;7452;55.594;12.986;2023-04-03T02:21:00;2.00;99.90
14723;DHT22;7452;55.594;12.986;2023-04-03T02:23:29;2.00;99.90
14723;DHT22;7452;55.594;12.986;2023-04-03T02:26:03;1.90;99.90
14723;DHT22;7452;55.594;12.986;2023-04-03T02:28:31;1.90;99.90
14723;DHT22;7452;55.594;12.986;2023-04-03T02:30:58;1.90;99.90
14723;DHT22;7452;55.594;12.986;2023-04-03T02:33:25;1.90;99.90
14723;DHT22;7452;55.594;12.986;2023-04-03T02:35:53;1.90;99.90
14723;DHT22;7452;55.594;12.986;2023-04-03T02:38:20;1.90;99.90
14723;DHT22;7452;55.594;12.986;2023-04-03T02:40:48;1.90;99.90
14723;DHT22;7452;55.594;12.986;2023-04-03T02:43:15;1.90;99.90
14723;DHT22;7452;55.594;12.986;2023-04-03T02:45:42;1.90;99.90
14723;DHT22;7452;55.594;12.986;2023-04-03T02:48:09;1.90;99.90
14723;DHT22;7452;55.594;12.986;2023-04-03T02:50:36;1.90;99.90
14723;DHT22;7452;55.594;12.986;2023-04-03T02:53:02;1.90;99.90
14723;DHT22;7452;55.594;12.986;2023-04-03T02:55:30;1.90;99.90
14723;DHT22;7452;55.594;12.986;2023-04-03T02:57:58;1.80;99.90
14723;DHT22;7452;55.594;12.986;2023-04-03T03:00:25;1.80;99.90
14723;DHT22;7452;55.594;12.986;2023-04-03T03:02:52;1.80;99.90
14723;DHT22;7452;55.594;12.986;2023-04-03T03:05:19;1.70;99.90
14723;DHT22;7452;55.594;12.986;2023-04-03T03:07:46;1.70;99.90
14723;DHT22;7452;55.594;12.986;2023-04-03T03:10:13;1.80;99.90
14723;DHT22;7452;55.594;12.986;2023-04-03T03:12:40;1.70;99.90
14723;DHT22;7452;55.594;12.986;2023-04-03T03:15:09;1.70;99.90
14723;DHT22;7452;55.594;12.986;2023-04-03T03:17:36;1.60;99.90
14723;DHT22;7452;55.594;12.986;2023-04-03T03:20:03;1.60;99.90
14723;DHT22;7452;55.594;12.986;2023-04-03T03:22:30;1.60;99.90
14723;DHT22;7452;55.594;12.986;2023-04-03T03:24:57;1.60;99.90
14723;DHT22;7452;55.594;12.986;2023-04-03T03:27:24;1.50;99.90
14723;DHT22;7452;55.594;12.986;2023-04-03T03:29:51;1.60;99.90
14723;DHT22;7452;55.594;12.986;2023-04-03T03:32:20;1.50;99.90
14723;DHT22;7452;55.594;12.986;2023-04-03T03:34:47;1.60;99.90
14723;DHT22;7452;55.594;12.986;2023-04-03T03:37:14;1.50;99.90
14723;DHT22;7452;55.594;12.986;2023-04-03T03:39:40;1.50;99.90
14723;DHT22;7452;55.594;12.986;2023-04-03T03:42:09;1.50;99.90
14723;DHT22;7452;55.594;12.986;2023-04-03T03:44:36;1.50;99.90
14723;DHT22;7452;55.594;12.986;2023-04-03T03:47:03;1.50;99.90
14723;DHT22;7452;55.594;12.986;2023-04-03T03:49:32;1.50;99.90
14723;DHT22;7452;55.594;12.986;2023-04-03T03:51:59;1.40;99.90
14723;DHT22;7452;55.594;12.986;2023-04-03T03:54:26;1.50;99.90
14723;DHT22;7452;55.594;12.986;2023-04-03T03:56:53;1.50;99.90
14723;DHT22;7452;55.594;12.986;2023-04-03T03:59:20;1.40;99.90
14723;DHT22;7452;55.594;12.986;2023-04-03T04:01:47;1.40;99.90
14723;DHT22;7452;55.594;12.986;2023-04-03T04:04:14;1.40;99.90
14723;DHT22;7452;55.594;12.986;2023-04-03T04:06:42;1.40;99.90
14723;DHT22;7452;55.594;12.986;2023-04-03T04:09:09;1.40;99.90
14723;DHT22;7452;55.594;12.986;2023-04-03T04:11:35;1.40;99.90
14723;DHT22;7452;55.594;12.986;2023-04-03T04:14:02;1.40;99.90
14723;DHT22;7452;55.594;12.986;2023-04-03T04:16:29;1.40;99.90
14723;DHT22;7452;55.594;12.986;2023-04-03T04:18:56;1.40;99.90
14723;DHT22;7452;55.594;12.986;2023-04-03T04:21:23;1.40;99.90
14723;DHT22;7452;55.594;12.986;2023-04-03T04:23:51;1.30;99.90
14723;DHT22;7452;55.594;12.986;2023-04-03T04:26:18;1.40;99.90
14723;DHT22;7452;55.594;12.986;2023-04-03T04:28:45;1.30;99.90
14723;DHT22;7452;55.594;12.986;2023-04-03T04:31:12;1.30;99.90
14723;DHT22;7452;55.594;12.986;2023-04-03T04:33:39;1.30;99.90
14723;DHT22;7452;55.594;12.986;2023-04-03T04:36:06;1.30;99.90
14723;DHT22;7452;55.594;12.986;2023-04-03T04:38:33;1.30;99.90
14723;DHT22;7452;55.594;12.986;2023-04-03T04:41:02;1.20;99.90
14723;DHT22;7452;55.594;12.986;2023-04-03T04:43:29;1.30;99.90
14723;DHT22;7452;55.594;12.986;2023-04-03T04:46:04;1.20;99.90
14723;DHT22;7452;55.594;12.986;2023-04-03T04:48:31;1.20;99.90
14723;DHT22;7452;55.594;12.986;2023-04-03T04:50:58;1.20;99.90
14723;DHT22;7452;55.594;12.986;2023-04-03T04:53:25;1.20;99.90
14723;DHT22;7452;55.594;12.986;2023-04-03T04:55:51;1.20;99.90
14723;DHT22;7452;55.594;12.986;2023-04-03T04:58:20;1.20;99.90
14723;DHT22;7452;55.594;12.986;2023-04-03T05:00:47;1.20;99.90
14723;DHT22;7452;55.594;12.986;2023-04-03T05:03:14;1.20;99.90
14723;DHT22;7452;55.594;12.986;2023-04-03T05:05:41;1.20;99.90
14723;DHT22;7452;55.594;12.986;2023-04-03T05:08:08;1.20;99.90
14723;DHT22;7452;55.594;12.986;2023-04-03T05:10:35;1.30;99.90
14723;DHT22;7452;55.594;12.986;2023-04-03T05:13:02;1.30;99.90
14723;DHT22;7452;55.594;12.986;2023-04-03T05:15:30;1.30;99.90
14723;DHT22;7452;55.594;12.986;2023-04-03T05:17:57;1.30;99.90
14723;DHT22;7452;55.594;12.986;2023-04-03T05:20:24;1.30;99.90
14723;DHT22;7452;55.594;12.986;2023-04-03T05:22:51;1.40;99.90
14723;DHT22;7452;55.594;12.986;2023-04-03T05:25:17;1.40;99.90
14723;DHT22;7452;55.594;12.986;2023-04-03T05:27:44;1.40;99.90
14723;DHT22;7452;55.594;12.986;2023-04-03T05:30:12;1.40;99.90
14723;DHT22;7452;55.594;12.986;2023-04-03T05:32:40;1.40;99.90
14723;DHT22;7452;55.594;12.986;2023-04-03T05:35:08;1.50;99.90
14723;DHT22;7452;55.594;12.986;2023-04-03T05:37:35;1.50;99.90
14723;DHT22;7452;55.594;12.986;2023-04-03T05:40:02;1.60;99.90
14723;DHT22;7452;55.594;12.986;2023-04-03T05:42:30;1.50;99.90
14723;DHT22;7452;55.594;12.986;2023-04-03T05:44:57;1.60;99.90
14723;DHT22;7452;55.594;12.986;2023-04-03T05:47:23;1.70;99.90
14723;DHT22;7452;55.594;12.986;2023-04-03T05:49:52;1.70;99.90
14723;DHT22;7452;55.594;12.986;2023-04-03T05:52:22;1.70;99.90
14723;DHT22;7452;55.594;12.986;2023-04-03T05:54:49;1.80;99.90
14723;DHT22;7452;55.594;12.986;2023-04-03T05:57:16;1.80;99.90
14723;DHT22;7452;55.594;12.986;2023-04-03T05:59:44;1.90;99.90
14723;DHT22;7452;55.594;12.986;2023-04-03T06:02:12;1.90;99.90
14723;DHT22;7452;55.594;12.986;2023-04-03T06:04:39;1.90;99.90
14723;DHT22;7452;55.594;12.986;2023-04-03T06:07:10;2.00;99.90
14723;DHT22;7452;55.594;12.986;2023-04-03T06:09:39;2.00;99.90
14723;DHT22;7452;55.594;12.986;2023-04-03T06:12:06;2.10;99.90
14723;DHT22;7452;55.594;12.986;2023-04-03T06:14:33;2.10;99.90
14723;DHT22;7452;55.594;12.986;2023-04-03T06:17:00;2.10;99.90
14723;DHT22;7452;55.594;12.986;2023-04-03T06:19:27;2.20;99.90
14723;DHT22;7452;55.594;12.986;2023-04-03T06:21:55;2.30;99.90
14723;DHT22;7452;55.594;12.986;2023-04-03T06:24:23;2.40;99.90
14723;DHT22;7452;55.594;12.986;2023-04-03T06:26:51;2.50;99.90
14723;DHT22;7452;55.594;12.986;2023-04-03T06:29:20;2.50;99.90
14723;DHT22;7452;55.594;12.986;2023-04-03T06:31:47;2.60;99.90
14723;DHT22;7452;55.594;12.986;2023-04-03T06:34:17;2.70;99.90
14723;DHT22;7452;55.594;12.986;2023-04-03T06:36:45;2.70;99.90
14723;DHT22;7452;55.594;12.986;2023-04-03T06:39:17;2.80;99.90
14723;DHT22;7452;55.594;12.986;2023-04-03T06:41:47;2.90;99.90
14723;DHT22;7452;55.594;12.986;2023-04-03T06:44:14;3.00;99.90
14723;DHT22;7452;55.594;12.986;2023-04-03T06:46:42;3.10;99.90
14723;DHT22;7452;55.594;12.986;2023-04-03T06:49:09;3.10;99.90
14723;DHT22;7452;55.594;12.986;2023-04-03T06:51:36;3.20;99.90
14723;DHT22;7452;55.594;12.986;2023-04-03T06:54:05;3.30;99.90
14723;DHT22;7452;55.594;12.986;2023-04-03T06:56:40;3.40;99.90
14723;DHT22;7452;55.594;12.986;2023-04-03T06:59:12;3.50;99.90
14723;DHT22;7452;55.594;12.986;2023-04-03T07:01:40;3.60;99.90
14723;DHT22;7452;55.594;12.986;2023-04-03T07:04:09;3.60;99.90
14723;DHT22;7452;55.594;12.986;2023-04-03T07:06:37;3.80;99.90
14723;DHT22;7452;55.594;12.986;2023-04-03T07:09:05;3.80;99.90
14723;DHT22;7452;55.594;12.986;2023-04-03T07:11:33;3.80;99.90
14723;DHT22;7452;55.594;12.986;2023-04-03T07:14:00;3.90;99.90
14723;DHT22;7452;55.594;12.986;2023-04-03T07:16:29;4.00;99.90
14723;DHT22;7452;55.594;12.986;2023-04-03T07:18:59;4.10;99.90
14723;DHT22;7452;55.594;12.986;2023-04-03T07:21:27;4.10;99.90
14723;DHT22;7452;55.594;12.986;2023-04-03T07:23:54;4.20;99.90
14723;DHT22;7452;55.594;12.986;2023-04-03T07:26:22;4.30;99.90
14723;DHT22;7452;55.594;12.986;2023-04-03T07:28:51;4.30;99.90
14723;DHT22;7452;55.594;12.986;2023-04-03T07:31:18;4.40;99.90
14723;DHT22;7452;55.594;12.986;2023-04-03T07:33:49;4.40;99.90
14723;DHT22;7452;55.594;12.986;2023-04-03T07:36:19;4.40;99.90
14723;DHT22;7452;55.594;12.986;2023-04-03T07:38:46;4.50;99.90
14723;DHT22;7452;55.594;12.986;2023-04-03T07:41:15;4.60;99.90
14723;DHT22;7452;55.594;12.986;2023-04-03T07:43:43;4.70;99.90
14723;DHT22;7452;55.594;12.986;2023-04-03T07:46:10;4.80;99.90
14723;DHT22;7452;55.594;12.986;2023-04-03T07:48:37;4.80;99.90
14723;DHT22;7452;55.594;12.986;2023-04-03T07:51:05;4.90;99.90
14723;DHT22;7452;55.594;12.986;2023-04-03T07:53:33;4.90;99.90
14723;DHT22;7452;55.594;12.986;2023-04-03T07:56:00;5.00;99.90
14723;DHT22;7452;55.594;12.986;2023-04-03T07:58:28;5.10;99.90
14723;DHT22;7452;55.594;12.986;2023-04-03T08:00:57;5.20;99.90
14723;DHT22;7452;55.594;12.986;2023-04-03T08:03:24;5.20;99.90
14723;DHT22;7452;55.594;12.986;2023-04-03T08:05:51;5.30;99.90
14723;DHT22;7452;55.594;12.986;2023-04-03T08:08:21;5.40;99.90
14723;DHT22;7452;55.594;12.986;2023-04-03T08:10:49;5.40;99.90
14723;DHT22;7452;55.594;12.986;2023-04-03T08:13:17;5.40;99.90
14723;DHT22;7452;55.594;12.986;2023-04-03T08:15:44;5.40;99.90
14723;DHT22;7452;55.594;12.986;2023-04-03T08:18:11;5.40;99.90
14723;DHT22;7452;55.594;12.986;2023-04-03T08:20:38;5.60;99.90
14723;DHT22;7452;55.594;12.986;2023-04-03T08:23:05;5.70;99.90
14723;DHT22;7452;55.594;12.986;2023-04-03T08:25:34;5.80;99.90
14723;DHT22;7452;55.594;12.986;2023-04-03T08:28:01;5.90;99.90
14723;DHT22;7452;55.594;12.986;2023-04-03T08:30:29;6.00;99.90
14723;DHT22;7452;55.594;12.986;2023-04-03T08:32:56;6.00;99.90
14723;DHT22;7452;55.594;12.986;2023-04-03T08:35:22;6.00;99.90
14723;DHT22;7452;55.594;12.986;2023-04-03T08:37:49;6.00;99.90
14723;DHT22;7452;55.594;12.986;2023-04-03T08:40:17;5.90;99.90
14723;DHT22;7452;55.594;12.986;2023-04-03T08:42:52;5.90;99.90
14723;DHT22;7452;55.594;12.986;2023-04-03T08:45:22;5.80;99.90
14723;DHT22;7452;55.594;12.986;2023-04-03T08:47:57;5.90;99.90
14723;DHT22;7452;55.594;12.986;2023-04-03T08:50:31;6.00;99.90
14723;DHT22;7452;55.594;12.986;2023-04-03T08:53:02;6.10;99.90
14723;DHT22;7452;55.594;12.986;2023-04-03T08:55:34;6.30;99.90
14723;DHT22;7452;55.594;12.986;2023-04-03T08:58:04;6.50;99.90
14723;DHT22;7452;55.594;12.986;2023-04-03T09:00:37;6.50;99.90
14723;DHT22;7452;55.594;12.986;2023-04-03T09:03:12;6.60;99.90
14723;DHT22;7452;55.594;12.986;2023-04-03T09:05:45;6.50;99.90
14723;DHT22;7452;55.594;12.986;2023-04-03T09:08:21;6.50;99.90
14723;DHT22;7452;55.594;12.986;2023-04-03T09:10:49;6.60;99.90
14723;DHT22;7452;55.594;12.986;2023-04-03T09:13:26;6.60;99.90
14723;DHT22;7452;55.594;12.986;2023-04-03T09:15:57;6.70;99.90
14723;DHT22;7452;55.594;12.986;2023-04-03T09:18:30;6.90;99.90
14723;DHT22;7452;55.594;12.986;2023-04-03T09:21:03;7.00;99.90
14723;DHT22;7452;55.594;12.986;2023-04-03T09:23:39;7.10;99.90
14723;DHT22;7452;55.594;12.986;2023-04-03T09:26:14;7.20;99.90
14723;DHT22;7452;55.594;12.986;2023-04-03T09:28:44;7.40;99.90
14723;DHT22;7452;55.594;12.986;2023-04-03T09:31:19;7.60;99.90
14723;DHT22;7452;55.594;12.986;2023-04-03T09:33:47;7.70;99.90
14723;DHT22;7452;55.594;12.986;2023-04-03T09:36:38;7.90;99.90
14723;DHT22;7452;55.594;12.986;2023-04-03T09:39:06;8.20;99.90
14723;DHT22;7452;55.594;12.986;2023-04-03T09:41:34;8.40;99.90
14723;DHT22;7452;55.594;12.986;2023-04-03T09:44:04;8.40;99.90
14723;DHT22;7452;55.594;12.986;2023-04-03T09:46:44;8.60;99.90
14723;DHT22;7452;55.594;12.986;2023-04-03T09:49:13;8.90;99.90
14723;DHT22;7452;55.594;12.986;2023-04-03T09:51:40;9.00;99.90
14723;DHT22;7452;55.594;12.986;2023-04-03T09:54:30;9.10;99.90
14723;DHT22;7452;55.594;12.986;2023-04-03T09:57:02;9.20;99.90
14723;DHT22;7452;55.594;12.986;2023-04-03T09:59:32;9.40;99.90
14723;DHT22;7452;55.594;12.986;2023-04-03T10:02:03;9.50;99.90
14723;DHT22;7452;55.594;12.986;2023-04-03T10:04:39;9.60;99.90
14723;DHT22;7452;55.594;12.986;2023-04-03T10:07:31;9.90;99.90
14723;DHT22;7452;55.594;12.986;2023-04-03T10:10:00;10.20;99.90
14723;DHT22;7452;55.594;12.986;2023-04-03T10:12:29;10.60;99.90
14723;DHT22;7452;55.594;12.986;2023-04-03T10:14:58;11.50;99.90
14723;DHT22;7452;55.594;12.986;2023-04-03T10:17:49;12.20;99.90
14723;DHT22;7452;55.594;12.986;2023-04-03T10:20:32;13.00;99.90
14723;DHT22;7452;55.594;12.986;2023-04-03T10:23:12;13.80;99.90
14723;DHT22;7452;55.594;12.986;2023-04-03T10:25:45;14.80;99.90
14723;DHT22;7452;55.594;12.986;2023-04-03T10:28:19;15.40;99.90
14723;DHT22;7452;55.594;12.986;2023-04-03T10:30:56;16.20;99.90
14723;DHT22;7452;55.594;12.986;2023-04-03T10:33:35;16.50;99.90
14723;DHT22;7452;55.594;12.986;2023-04-03T10:36:12;17.00;99.90
14723;DHT22;7452;55.594;12.986;2023-04-03T10:38:48;17.10;99.90
14723;DHT22;7452;55.594;12.986;2023-04-03T10:41:22;17.50;99.40
14723;DHT22;7452;55.594;12.986;2023-04-03T10:43:59;17.90;95.10
14723;DHT22;7452;55.594;12.986;2023-04-03T10:46:35;17.80;97.40
14723;DHT22;7452;55.594;12.986;2023-04-03T10:49:17;18.30;95.10
14723;DHT22;7452;55.594;12.986;2023-04-03T10:51:48;18.70;92.40
14723;DHT22;7452;55.594;12.986;2023-04-03T10:54:22;18.70;95.20
14723;DHT22;7452;55.594;12.986;2023-04-03T10:56:53;18.80;93.50
14723;DHT22;7452;55.594;12.986;2023-04-03T10:59:26;18.90;92.20
14723;DHT22;7452;55.594;12.986;2023-04-03T11:02:00;19.60;93.40
14723;DHT22;7452;55.594;12.986;2023-04-03T11:04:31;20.10;92.00
14723;DHT22;7452;55.594;12.986;2023-04-03T11:07:03;20.30;91.60
14723;DHT22;7452;55.594;12.986;2023-04-03T11:09:34;20.40;90.40
14723;DHT22;7452;55.594;12.986;2023-04-03T11:12:06;20.50;90.00
14723;DHT22;7452;55.594;12.986;2023-04-03T11:14:37;20.40;90.80
14723;DHT22;7452;55.594;12.986;2023-04-03T11:17:19;20.50;90.00
14723;DHT22;7452;55.594;12.986;2023-04-03T11:19:52;20.40;84.10
14723;DHT22;7452;55.594;12.986;2023-04-03T11:22:27;20.90;87.00
14723;DHT22;7452;55.594;12.986;2023-04-03T11:24:59;21.10;83.40
14723;DHT22;7452;55.594;12.986;2023-04-03T11:27:35;21.70;88.30
14723;DHT22;7452;55.594;12.986;2023-04-03T11:30:07;21.90;85.40
14723;DHT22;7452;55.594;12.986;2023-04-03T11:35:38;22.00;89.30
14723;DHT22;7452;55.594;12.986;2023-04-03T11:38:17;22.60;83.90
14723;DHT22;7452;55.594;12.986;2023-04-03T11:40:47;22.30;77.20
14723;DHT22;7452;55.594;12.986;2023-04-03T11:43:23;21.80;81.30
14723;DHT22;7452;55.594;12.986;2023-04-03T11:45:54;22.10;78.50
14723;DHT22;7452;55.594;12.986;2023-04-03T11:48:47;22.10;80.10
14723;DHT22;7452;55.594;12.986;2023-04-03T11:51:41;21.90;77.20
14723;DHT22;7452;55.594;12.986;2023-04-03T11:54:46;22.20;76.20
14723;DHT22;7452;55.594;12.986;2023-04-03T11:57:43;22.40;79.50
14723;DHT22;7452;55.594;12.986;2023-04-03T12:00:48;22.40;76.50
14723;DHT22;7452;55.594;12.986;2023-04-03T12:06:50;23.10;76.40
14723;DHT22;7452;55.594;12.986;2023-04-03T12:09:31;22.70;75.70
14723;DHT22;7452;55.594;12.986;2023-04-03T12:12:00;22.40;79.00
14723;DHT22;7452;55.594;12.986;2023-04-03T12:14:29;22.30;76.40
14723;DHT22;7452;55.594;12.986;2023-04-03T12:16:56;22.10;75.60
14723;DHT22;7452;55.594;12.986;2023-04-03T12:19:36;21.90;78.20
14723;DHT22;7452;55.594;12.986;2023-04-03T12:22:18;21.70;75.90
14723;DHT22;7452;55.594;12.986;2023-04-03T12:24:47;21.40;75.30
14723;DHT22;7452;55.594;12.986;2023-04-03T12:27:33;21.20;75.70
14723;DHT22;7452;55.594;12.986;2023-04-03T12:30:23;21.10;72.90
14723;DHT22;7452;55.594;12.986;2023-04-03T12:33:06;20.80;77.30
14723;DHT22;7452;55.594;12.986;2023-04-03T12:35:44;21.00;82.00
14723;DHT22;7452;55.594;12.986;2023-04-03T12:38:33;21.30;77.40
14723;DHT22;7452;55.594;12.986;2023-04-03T12:41:19;21.20;80.00
14723;DHT22;7452;55.594;12.986;2023-04-03T12:43:59;21.30;73.10
14723;DHT22;7452;55.594;12.986;2023-04-03T12:46:35;21.20;76.00
14723;DHT22;7452;55.594;12.986;2023-04-03T12:49:17;21.00;74.70
14723;DHT22;7452;55.594;12.986;2023-04-03T12:51:47;20.80;74.10
14723;DHT22;7452;55.594;12.986;2023-04-03T12:54:19;20.90;74.90
14723;DHT22;7452;55.594;12.986;2023-04-03T12:56:48;21.00;75.40
14723;DHT22;7452;55.594;12.986;2023-04-03T12:59:18;20.90;77.30
14723;DHT22;7452;55.594;12.986;2023-04-03T13:01:54;20.90;74.20
14723;DHT22;7452;55.594;12.986;2023-04-03T13:04:21;21.10;75.90
14723;DHT22;7452;55.594;12.986;2023-04-03T13:06:49;21.20;75.90
14723;DHT22;7452;55.594;12.986;2023-04-03T13:09:25;21.20;74.10
14723;DHT22;7452;55.594;12.986;2023-04-03T13:11:57;21.50;76.60
14723;DHT22;7452;55.594;12.986;2023-04-03T13:14:26;21.50;75.60
14723;DHT22;7452;55.594;12.986;2023-04-03T13:16:54;21.50;73.70
14723;DHT22;7452;55.594;12.986;2023-04-03T13:19:24;21.50;71.40
14723;DHT22;7452;55.594;12.986;2023-04-03T13:21:55;21.60;70.30
14723;DHT22;7452;55.594;12.986;2023-04-03T13:24:26;21.40;72.10
14723;DHT22;7452;55.594;12.986;2023-04-03T13:26:54;21.60;74.70
14723;DHT22;7452;55.594;12.986;2023-04-03T13:29:25;21.80;75.10
14723;DHT22;7452;55.594;12.986;2023-04-03T13:31:54;22.20;71.10
14723;DHT22;7452;55.594;12.986;2023-04-03T13:34:23;22.40;73.90
14723;DHT22;7452;55.594;12.986;2023-04-03T13:36:57;22.90;72.70
14723;DHT22;7452;55.594;12.986;2023-04-03T13:39:27;23.40;72.40
14723;DHT22;7452;55.594;12.986;2023-04-03T13:41:58;23.30;73.80
14723;DHT22;7452;55.594;12.986;2023-04-03T13:44:32;23.00;67.80
14723;DHT22;7452;55.594;12.986;2023-04-03T13:47:01;22.40;69.80
14723;DHT22;7452;55.594;12.986;2023-04-03T13:49:42;22.60;73.10
14723;DHT22;7452;55.594;12.986;2023-04-03T13:52:23;23.20;69.50
14723;DHT22;7452;55.594;12.986;2023-04-03T13:54:58;23.10;67.60
14723;DHT22;7452;55.594;12.986;2023-04-03T13:57:25;23.20;71.50
14723;DHT22;7452;55.594;12.986;2023-04-03T13:59:53;22.90;68.70
14723;DHT22;7452;55.594;12.986;2023-04-03T14:02:22;22.70;69.10
14723;DHT22;7452;55.594;12.986;2023-04-03T14:04:53;22.90;69.20
14723;DHT22;7452;55.594;12.986;2023-04-03T14:07:24;22.70;70.70
14723;DHT22;7452;55.594;12.986;2023-04-03T14:09:54;22.90;69.20
14723;DHT22;7452;55.594;12.986;2023-04-03T14:12:26;23.10;63.60
14723;DHT22;7452;55.594;12.986;2023-04-03T14:14:53;23.00;68.60
14723;DHT22;7452;55.594;12.986;2023-04-03T14:17:23;23.20;66.90
14723;DHT22;7452;55.594;12.986;2023-04-03T14:19:50;23.20;71.20
14723;DHT22;7452;55.594;12.986;2023-04-03T14:22:20;23.30;68.10
14723;DHT22;7452;55.594;12.986;2023-04-03T14:24:48;23.30;69.50
14723;DHT22;7452;55.594;12.986;2023-04-03T14:27:20;23.20;71.80
14723;DHT22;7452;55.594;12.986;2023-04-03T14:29:48;23.60;71.10
14723;DHT22;7452;55.594;12.986;2023-04-03T14:32:18;24.20;70.30
14723;DHT22;7452;55.594;12.986;2023-04-03T14:34:46;24.50;68.70
14723;DHT22;7452;55.594;12.986;2023-04-03T14:37:15;24.10;70.30
14723;DHT22;7452;55.594;12.986;2023-04-03T14:39:44;24.10;70.30
14723;DHT22;7452;55.594;12.986;2023-04-03T14:42:19;24.10;71.90
14723;DHT22;7452;55.594;12.986;2023-04-03T14:44:47;23.90;64.90
14723;DHT22;7452;55.594;12.986;2023-04-03T14:47:17;23.90;66.90
14723;DHT22;7452;55.594;12.986;2023-04-03T14:49:45;23.70;74.00
14723;DHT22;7452;55.594;12.986;2023-04-03T14:52:18;23.10;67.90
14723;DHT22;7452;55.594;12.986;2023-04-03T14:54:46;22.80;64.00
14723;DHT22;7452;55.594;12.986;2023-04-03T14:57:14;22.60;68.20
14723;DHT22;7452;55.594;12.986;2023-04-03T14:59:43;22.50;62.90
14723;DHT22;7452;55.594;12.986;2023-04-03T15:02:25;22.20;63.80
14723;DHT22;7452;55.594;12.986;2023-04-03T15:04:52;22.30;67.00
14723;DHT22;7452;55.594;12.986;2023-04-03T15:07:19;22.40;68.10
14723;DHT22;7452;55.594;12.986;2023-04-03T15:09:46;22.20;67.60
14723;DHT22;7452;55.594;12.986;2023-04-03T15:12:13;22.10;66.50
14723;DHT22;7452;55.594;12.986;2023-04-03T15:14:43;22.00;64.20
14723;DHT22;7452;55.594;12.986;2023-04-03T15:17:15;22.00;63.80
14723;DHT22;7452;55.594;12.986;2023-04-03T15:19:43;21.60;64.90
14723;DHT22;7452;55.594;12.986;2023-04-03T15:22:14;21.50;64.50
14723;DHT22;7452;55.594;12.986;2023-04-03T15:24:41;21.60;65.20
14723;DHT22;7452;55.594;12.986;2023-04-03T15:27:09;21.30;63.90
14723;DHT22;7452;55.594;12.986;2023-04-03T15:29:36;21.20;63.80
14723;DHT22;7452;55.594;12.986;2023-04-03T15:32:06;21.20;65.30
14723;DHT22;7452;55.594;12.986;2023-04-03T15:34:32;21.20;65.00
14723;DHT22;7452;55.594;12.986;2023-04-03T15:36:59;21.10;65.10
14723;DHT22;7452;55.594;12.986;2023-04-03T15:39:27;20.90;63.10
14723;DHT22;7452;55.594;12.986;2023-04-03T15:41:54;20.80;64.60
14723;DHT22;7452;55.594;12.986;2023-04-03T15:44:25;20.80;64.30
14723;DHT22;7452;55.594;12.986;2023-04-03T15:46:52;20.60;63.30
14723;DHT22;7452;55.594;12.986;2023-04-03T15:49:21;20.50;64.40
14723;DHT22;7452;55.594;12.986;2023-04-03T15:51:48;20.30;65.40
14723;DHT22;7452;55.594;12.986;2023-04-03T15:54:15;20.20;65.60
14723;DHT22;7452;55.594;12.986;2023-04-03T15:56:42;20.10;65.00
14723;DHT22;7452;55.594;12.986;2023-04-03T15:59:09;20.60;63.20
14723;DHT22;7452;55.594;12.986;2023-04-03T16:01:36;20.80;62.50
14723;DHT22;7452;55.594;12.986;2023-04-03T16:04:04;20.70;63.50
14723;DHT22;7452;55.594;12.986;2023-04-03T16:06:33;20.30;62.90